createdAt,value
2022-08-12T00:01:02.415Z,25.40
2022-08-12T00:03:50.584Z,25.30
2022-08-12T00:06:39.605Z,25.30
2022-08-12T00:09:26.601Z,25.30
2022-08-12T00:12:14.008Z,25.30
2022-08-12T00:15:01.884Z,25.20
2022-08-12T00:17:49.589Z,25.20
2022-08-12T00:20:36.015Z,25.20
2022-08-12T00:23:22.671Z,25.10
2022-08-12T00:26:22.714Z,25.10
2022-08-12T00:29:12.606Z,25.00
2022-08-12T00:32:02.101Z,25.00
2022-08-12T00:34:53.158Z,24.90
2022-08-12T00:37:43.754Z,24.90
2022-08-12T00:40:33.268Z,24.90
2022-08-12T00:43:04.330Z,24.90
2022-08-12T00:45:53.297Z,24.90
2022-08-12T00:48:23.065Z,24.80
2022-08-12T00:50:57.390Z,24.80
2022-08-12T00:53:29.642Z,24.80
2022-08-12T00:56:00.757Z,24.80
2022-08-12T00:58:32.502Z,24.70
2022-08-12T01:01:06.700Z,24.70
2022-08-12T01:03:56.559Z,24.70
2022-08-12T01:06:51.232Z,24.60
2022-08-12T01:09:42.163Z,24.60
2022-08-12T01:12:13.865Z,24.60
2022-08-12T01:14:47.343Z,24.50
2022-08-12T01:17:17.230Z,24.50
2022-08-12T01:19:52.586Z,24.50
2022-08-12T01:22:32.013Z,24.40
2022-08-12T01:25:08.421Z,24.40
2022-08-12T01:27:41.606Z,24.40
2022-08-12T01:30:14.222Z,24.40
2022-08-12T01:32:48.940Z,24.30
2022-08-12T01:35:18.559Z,24.30
2022-08-12T01:37:55.188Z,24.30
2022-08-12T01:40:33.740Z,24.20
2022-08-12T01:43:11.146Z,24.20
2022-08-12T01:45:57.563Z,24.20
2022-08-12T01:48:35.582Z,24.10
2022-08-12T01:51:24.477Z,24.10
2022-08-12T01:54:06.400Z,24.10
2022-08-12T01:56:49.196Z,24.10
2022-08-12T01:59:42.969Z,24.00
2022-08-12T02:02:16.457Z,24.00
2022-08-12T02:05:26.408Z,23.90
2022-08-12T02:08:31.820Z,23.90
2022-08-12T02:11:19.829Z,23.80
2022-08-12T02:14:13.732Z,23.80
2022-08-12T02:17:05.233Z,23.80
2022-08-12T02:19:55.213Z,23.70
2022-08-12T02:22:31.418Z,23.70
2022-08-12T02:25:08.785Z,23.70
2022-08-12T02:27:45.658Z,23.70
2022-08-12T02:30:19.647Z,23.70
2022-08-12T02:32:50.694Z,23.70
2022-08-12T02:35:21.389Z,23.60
2022-08-12T02:37:53.376Z,23.60
2022-08-12T02:40:23.648Z,23.60
2022-08-12T02:42:58.781Z,23.60
2022-08-12T02:45:39.060Z,23.50
2022-08-12T02:48:11.407Z,23.50
2022-08-12T02:50:47.817Z,23.50
2022-08-12T02:53:17.714Z,23.50
2022-08-12T02:55:46.866Z,23.50
2022-08-12T02:58:16.267Z,23.50
2022-08-12T03:00:49.517Z,23.40
2022-08-12T03:03:23.264Z,23.40
2022-08-12T03:06:00.790Z,23.40
2022-08-12T03:08:42.194Z,23.30
2022-08-12T03:11:17.801Z,23.30
2022-08-12T03:13:52.967Z,23.30
2022-08-12T03:16:23.847Z,23.30
2022-08-12T03:18:52.317Z,23.30
2022-08-12T03:21:55.532Z,23.20
2022-08-12T03:24:14.593Z,23.20
2022-08-12T03:26:48.837Z,23.20
2022-08-12T03:29:18.947Z,23.10
2022-08-12T03:31:49.605Z,23.10
2022-08-12T03:34:26.573Z,23.10
2022-08-12T03:36:56.345Z,23.10
2022-08-12T03:39:36.546Z,23.10
2022-08-12T03:42:21.958Z,23.00
2022-08-12T03:45:23.496Z,23.00
2022-08-12T03:48:19.021Z,23.00
2022-08-12T03:51:06.568Z,22.90
2022-08-12T03:53:53.460Z,22.90
2022-08-12T03:56:39.316Z,22.90
2022-08-12T03:59:26.326Z,22.90
2022-08-12T04:01:58.282Z,22.80
2022-08-12T04:04:34.148Z,22.80
2022-08-12T04:07:07.776Z,22.80
2022-08-12T04:09:39.281Z,22.80
2022-08-12T04:12:26.494Z,22.80
2022-08-12T04:14:57.464Z,22.70
2022-08-12T04:17:28.272Z,22.70
2022-08-12T04:19:59.667Z,22.70
2022-08-12T04:22:30.486Z,22.70
2022-08-12T04:25:01.956Z,22.80
2022-08-12T04:27:32.055Z,22.80
2022-08-12T04:30:32.858Z,22.80
2022-08-12T04:32:52.137Z,22.80
2022-08-12T04:35:23.221Z,22.80
2022-08-12T04:37:58.162Z,22.80
2022-08-12T04:40:31.042Z,22.80
2022-08-12T04:43:01.278Z,22.90
2022-08-12T04:45:30.640Z,22.90
2022-08-12T04:47:58.617Z,22.90
2022-08-12T04:50:35.081Z,22.90
2022-08-12T04:53:06.936Z,22.90
2022-08-12T04:55:38.348Z,22.90
2022-08-12T04:58:06.440Z,23.00
2022-08-12T05:00:34.940Z,23.00
2022-08-12T05:03:03.056Z,23.00
2022-08-12T05:05:36.278Z,23.00
2022-08-12T05:08:07.820Z,23.00
2022-08-12T05:10:36.233Z,23.10
2022-08-12T05:13:11.061Z,23.10
2022-08-12T05:16:03.582Z,23.10
2022-08-12T05:18:29.659Z,23.10
2022-08-12T05:21:00.330Z,23.10
2022-08-12T05:23:32.101Z,23.20
2022-08-12T05:26:05.088Z,23.20
2022-08-12T05:28:34.588Z,23.20
2022-08-12T05:31:02.808Z,23.30
2022-08-12T05:33:38.356Z,23.30
2022-08-12T05:36:12.604Z,23.30
2022-08-12T05:38:59.955Z,23.40
2022-08-12T05:41:31.246Z,23.40
2022-08-12T05:44:02.852Z,23.40
2022-08-12T05:46:33.125Z,23.50
2022-08-12T05:49:02.199Z,23.50
2022-08-12T05:51:40.226Z,23.60
2022-08-12T05:54:11.158Z,23.70
2022-08-12T05:56:40.063Z,23.80
2022-08-12T05:59:10.998Z,23.80
2022-08-12T06:02:11.662Z,23.90
2022-08-12T06:04:28.846Z,24.00
2022-08-12T06:06:58.220Z,24.00
2022-08-12T06:09:28.666Z,24.10
2022-08-12T06:12:05.090Z,24.20
2022-08-12T06:14:37.028Z,24.30
2022-08-12T06:17:09.334Z,24.40
2022-08-12T06:20:27.771Z,24.60
2022-08-12T06:22:27.745Z,24.70
2022-08-12T06:24:55.787Z,24.80
2022-08-12T06:27:23.882Z,25.00
2022-08-12T06:30:08.283Z,25.20
2022-08-12T06:32:51.621Z,25.30
2022-08-12T06:35:48.630Z,25.50
2022-08-12T06:38:21.942Z,25.60
2022-08-12T06:41:13.227Z,25.90
2022-08-12T06:44:06.166Z,26.10
2022-08-12T06:46:31.543Z,26.30
2022-08-12T06:49:00.715Z,26.50
2022-08-12T06:51:32.699Z,26.70
2022-08-12T06:54:02.910Z,26.90
2022-08-12T06:57:00.242Z,27.10
2022-08-12T06:59:21.492Z,27.30
2022-08-12T07:01:51.602Z,27.50
2022-08-12T07:04:38.188Z,27.60
2022-08-12T07:07:08.927Z,27.80
2022-08-12T07:10:04.298Z,27.90
2022-08-12T07:12:27.790Z,28.10
2022-08-12T07:14:57.085Z,28.20
2022-08-12T07:17:25.095Z,28.30
2022-08-12T07:19:53.670Z,28.50
2022-08-12T07:22:23.350Z,28.60
2022-08-12T07:25:13.399Z,28.80
2022-08-12T07:27:42.627Z,29.00
2022-08-12T07:30:12.633Z,29.10
2022-08-12T07:32:40.867Z,29.30
2022-08-12T07:35:09.897Z,29.50
2022-08-12T07:37:42.681Z,29.60
2022-08-12T07:40:13.083Z,29.80
2022-08-12T07:42:43.553Z,30.00
2022-08-12T07:45:14.089Z,30.20
2022-08-12T07:47:43.780Z,30.30
2022-08-12T07:50:13.610Z,30.50
2022-08-12T07:52:46.931Z,30.60
2022-08-12T07:55:19.573Z,30.80
2022-08-12T07:57:59.472Z,30.90
2022-08-12T08:00:30.048Z,31.00
2022-08-12T08:02:58.750Z,31.10
2022-08-12T08:05:32.552Z,31.20
2022-08-12T08:08:01.757Z,31.20
2022-08-12T08:10:33.437Z,31.20
2022-08-12T08:13:05.194Z,31.20
2022-08-12T08:16:01.347Z,31.10
2022-08-12T08:18:26.593Z,31.00
2022-08-12T08:20:57.437Z,30.90
2022-08-12T08:23:56.422Z,30.80
2022-08-12T08:26:28.305Z,30.70
2022-08-12T08:28:56.942Z,30.60
2022-08-12T08:31:25.039Z,30.60
2022-08-12T08:34:04.378Z,30.50
2022-08-12T08:36:39.121Z,30.50
2022-08-12T08:39:10.283Z,30.50
2022-08-12T08:42:16.577Z,30.60
2022-08-12T08:44:46.325Z,30.60
2022-08-12T08:47:14.452Z,30.70
2022-08-12T08:49:42.684Z,30.80
2022-08-12T08:52:12.510Z,30.90
2022-08-12T08:55:00.606Z,31.00
2022-08-12T08:57:42.688Z,31.00
2022-08-12T09:00:15.737Z,31.10
2022-08-12T09:02:49.134Z,31.10
2022-08-12T09:05:26.680Z,31.10
2022-08-12T09:14:11.000Z,31.10
2022-08-12T09:16:23.352Z,31.10
2022-08-12T09:18:52.394Z,31.10
2022-08-12T09:21:23.171Z,31.10
2022-08-12T09:23:57.394Z,31.00
2022-08-12T09:30:08.937Z,30.80
2022-08-12T09:32:29.619Z,30.80
2022-08-12T09:34:57.772Z,30.70
2022-08-12T09:37:26.643Z,30.60
2022-08-12T09:40:02.431Z,30.60
2022-08-12T09:43:17.269Z,30.50
2022-08-12T09:46:11.744Z,30.40
2022-08-12T09:48:36.331Z,30.30
2022-08-12T09:51:10.953Z,30.30
2022-08-12T09:54:05.525Z,30.20
2022-08-12T09:56:59.778Z,30.20
2022-08-12T10:00:13.901Z,30.10
2022-08-12T10:02:43.173Z,30.00
2022-08-12T10:05:02.455Z,30.00
2022-08-12T10:07:39.635Z,30.00
2022-08-12T10:10:25.220Z,29.90
2022-08-12T10:13:38.987Z,29.90
2022-08-12T10:16:07.654Z,29.80
2022-08-12T10:18:51.794Z,29.80
2022-08-12T10:21:35.563Z,29.80
2022-08-12T10:24:08.290Z,29.70
2022-08-12T10:26:56.128Z,29.70
2022-08-12T10:30:03.578Z,29.70
2022-08-12T10:32:45.135Z,29.70
2022-08-12T10:35:16.877Z,29.70
2022-08-12T10:38:37.289Z,29.70
2022-08-12T10:40:55.294Z,29.60
2022-08-12T10:43:55.478Z,29.60
2022-08-12T10:46:30.364Z,29.60
2022-08-12T10:49:07.050Z,29.60
2022-08-12T10:52:32.340Z,29.50
2022-08-12T10:54:41.476Z,29.50
2022-08-12T10:57:18.445Z,29.50
2022-08-12T11:00:34.599Z,29.50
2022-08-12T11:04:25.696Z,29.50
2022-08-12T11:07:05.007Z,29.50
2022-08-12T11:08:43.714Z,29.40
2022-08-12T11:12:07.565Z,29.40
2022-08-12T11:14:06.758Z,29.40
2022-08-12T11:17:33.500Z,29.40
2022-08-12T11:19:45.864Z,29.40
2022-08-12T11:22:14.408Z,29.40
2022-08-12T11:24:51.675Z,29.40
2022-08-12T11:27:19.897Z,29.40
2022-08-12T11:30:02.443Z,29.40
2022-08-12T11:32:38.882Z,29.40
2022-08-12T11:35:09.017Z,29.40
2022-08-12T11:37:58.344Z,29.40
2022-08-12T11:40:29.514Z,29.40
2022-08-12T11:43:18.640Z,29.40
2022-08-12T11:45:53.432Z,29.40
2022-08-12T11:48:27.121Z,29.40
2022-08-12T11:50:56.355Z,29.40
2022-08-12T11:53:59.591Z,29.40
2022-08-12T11:56:13.791Z,29.40
2022-08-12T12:02:02.420Z,29.40
2022-08-12T12:04:28.991Z,29.40
2022-08-12T12:07:07.243Z,29.40
2022-08-12T12:09:52.007Z,29.40
2022-08-12T12:12:32.487Z,29.40
2022-08-12T12:15:06.787Z,29.40
2022-08-12T12:17:38.134Z,29.40
2022-08-12T12:20:09.887Z,29.40
2022-08-12T12:22:39.213Z,29.40
2022-08-12T12:25:13.193Z,29.40
2022-08-12T12:28:05.195Z,29.40
2022-08-12T12:30:34.368Z,29.40
2022-08-12T12:33:02.672Z,29.40
2022-08-12T12:36:20.011Z,29.50
2022-08-12T12:38:19.980Z,29.40
2022-08-12T12:40:50.247Z,29.40
2022-08-12T12:43:28.700Z,29.40
2022-08-12T12:46:08.777Z,29.50
2022-08-12T12:48:37.751Z,29.50
2022-08-12T12:51:48.567Z,29.50
2022-08-12T12:54:09.730Z,29.50
2022-08-12T12:56:41.866Z,29.50
2022-08-12T12:59:54.418Z,29.50
2022-08-12T13:02:07.552Z,29.40
2022-08-12T13:04:37.872Z,29.40
2022-08-12T13:07:06.854Z,29.40
2022-08-12T13:09:36.253Z,29.40
2022-08-12T13:12:08.978Z,29.40
2022-08-12T13:14:39.821Z,29.40
2022-08-12T13:17:11.361Z,29.40
2022-08-12T13:19:48.273Z,29.40
2022-08-12T13:22:20.114Z,29.40
2022-08-12T13:24:54.554Z,29.40
2022-08-12T13:27:35.282Z,29.50
2022-08-12T13:30:11.307Z,29.40
2022-08-12T13:32:42.538Z,29.40
2022-08-12T13:35:20.376Z,29.40
2022-08-12T13:38:02.757Z,29.40
2022-08-12T13:40:33.877Z,29.40
2022-08-12T13:43:06.398Z,29.40
2022-08-12T13:45:36.817Z,29.40
2022-08-12T13:48:07.285Z,29.40
2022-08-12T13:50:38.237Z,29.40
2022-08-12T13:53:24.354Z,29.40
2022-08-12T13:56:01.575Z,29.50
2022-08-12T13:58:33.029Z,29.40
2022-08-12T14:01:05.881Z,29.50
2022-08-12T14:03:50.536Z,29.50
2022-08-12T14:06:20.989Z,29.50
2022-08-12T14:08:50.576Z,29.50
2022-08-12T14:11:25.211Z,29.50
2022-08-12T14:14:03.717Z,29.50
2022-08-12T14:16:49.285Z,29.50
2022-08-12T14:19:24.193Z,29.50
2022-08-12T14:22:00.688Z,29.50
2022-08-12T14:24:35.618Z,29.50
2022-08-12T14:27:08.866Z,29.50
2022-08-12T14:30:04.142Z,29.60
2022-08-12T14:32:39.948Z,29.50
2022-08-12T14:35:09.784Z,29.60
2022-08-12T14:37:58.197Z,29.60
2022-08-12T14:40:29.377Z,29.60
2022-08-12T14:42:58.418Z,29.60
2022-08-12T14:45:44.287Z,29.60
2022-08-12T14:48:19.396Z,29.60
2022-08-12T14:52:10.665Z,29.60
2022-08-12T14:54:49.942Z,29.60
2022-08-12T14:57:00.090Z,29.60
2022-08-12T14:59:56.399Z,29.60
2022-08-12T15:02:25.950Z,29.60
2022-08-12T15:04:59.592Z,29.60
2022-08-12T15:07:33.523Z,29.60
2022-08-12T15:10:25.107Z,29.70
2022-08-12T15:13:07.544Z,29.70
2022-08-12T15:15:43.918Z,29.60
2022-08-12T15:18:21.811Z,29.70
2022-08-12T15:20:54.708Z,29.70
2022-08-12T15:23:23.995Z,29.70
2022-08-12T15:25:59.692Z,29.70
2022-08-12T15:28:33.681Z,29.70
2022-08-12T15:31:02.421Z,29.70
2022-08-12T15:33:44.597Z,29.70
2022-08-12T15:36:19.523Z,29.70
2022-08-12T15:39:05.781Z,29.70
2022-08-12T15:41:50.148Z,29.70
2022-08-12T15:44:38.735Z,29.70
2022-08-12T15:47:09.022Z,29.70
2022-08-12T15:49:43.158Z,29.80
2022-08-12T15:52:28.138Z,29.70
2022-08-12T15:54:58.390Z,29.70
2022-08-12T15:57:27.644Z,29.70
2022-08-12T16:00:04.592Z,29.80
2022-08-12T16:02:47.321Z,29.70
2022-08-12T16:06:11.119Z,29.80
2022-08-12T16:08:18.305Z,29.80
2022-08-12T16:10:48.532Z,29.80
2022-08-12T16:13:32.377Z,29.80
2022-08-12T16:16:03.290Z,29.80
2022-08-12T16:18:33.359Z,29.80
2022-08-12T16:21:02.484Z,29.80
2022-08-12T16:23:52.008Z,29.80
2022-08-12T16:26:32.271Z,29.80
2022-08-12T16:29:14.445Z,29.80
2022-08-12T16:31:44.969Z,29.80
2022-08-12T16:34:40.160Z,29.80
2022-08-12T16:37:07.194Z,29.80
2022-08-12T16:39:59.952Z,29.80
2022-08-12T16:42:28.477Z,29.80
2022-08-12T16:44:59.396Z,29.90
2022-08-12T16:47:28.029Z,29.90
2022-08-12T16:49:57.666Z,29.90
2022-08-12T16:52:26.202Z,29.90
2022-08-12T16:54:56.632Z,29.90
2022-08-12T16:57:34.925Z,29.90
2022-08-12T17:00:06.948Z,29.80
2022-08-12T17:02:37.821Z,29.90
2022-08-12T17:05:12.500Z,29.80
2022-08-12T17:07:43.305Z,29.90
2022-08-12T17:10:18.157Z,29.80
2022-08-12T17:12:46.678Z,29.90
2022-08-12T17:15:50.981Z,29.90
2022-08-12T17:18:42.482Z,29.90
2022-08-12T17:20:56.330Z,29.90
2022-08-12T17:23:28.508Z,29.80
2022-08-12T17:26:18.580Z,29.80
2022-08-12T17:28:52.618Z,29.80
2022-08-12T17:31:59.837Z,29.80
2022-08-12T17:34:31.397Z,29.80
2022-08-12T17:37:05.743Z,29.80
2022-08-12T17:40:12.245Z,29.80
2022-08-12T17:42:32.955Z,29.80
2022-08-12T17:45:17.245Z,29.80
2022-08-12T17:48:01.521Z,29.80
2022-08-12T17:50:32.297Z,29.80
2022-08-12T17:53:02.719Z,29.80
2022-08-12T17:55:43.741Z,29.80
2022-08-12T17:58:37.073Z,29.70
2022-08-12T18:01:11.459Z,29.70
2022-08-12T18:03:57.504Z,29.70
2022-08-12T18:06:31.999Z,29.70
2022-08-12T18:09:08.452Z,29.70
2022-08-12T18:12:06.247Z,29.70
2022-08-12T18:14:40.991Z,29.60
2022-08-12T18:17:12.119Z,29.60
2022-08-12T18:20:06.244Z,29.70
2022-08-12T18:22:33.003Z,29.60
2022-08-12T18:25:05.069Z,29.60
2022-08-12T18:27:44.956Z,29.60
2022-08-12T18:30:28.910Z,29.60
2022-08-12T18:33:03.611Z,29.60
2022-08-12T18:35:47.791Z,29.60
2022-08-12T18:38:25.061Z,29.60
2022-08-12T18:41:21.508Z,29.50
2022-08-12T18:43:59.979Z,29.50
2022-08-12T18:46:45.774Z,29.50
2022-08-12T18:49:20.032Z,29.50
2022-08-12T18:52:02.325Z,29.40
2022-08-12T18:54:35.855Z,29.40
2022-08-12T18:57:19.609Z,29.40
2022-08-12T19:00:06.340Z,29.40
2022-08-12T19:02:39.685Z,29.40
2022-08-12T19:05:11.238Z,29.30
2022-08-12T19:07:50.049Z,29.30
2022-08-12T19:10:32.632Z,29.30
2022-08-12T19:13:23.941Z,29.30
2022-08-12T19:15:57.537Z,29.20
2022-08-12T19:18:29.523Z,29.20
2022-08-12T19:21:00.360Z,29.20
2022-08-12T19:23:35.942Z,29.20
2022-08-12T19:26:10.519Z,29.10
2022-08-12T19:28:41.575Z,29.10
2022-08-12T19:31:55.571Z,29.10
2022-08-12T19:37:26.653Z,29.00
2022-08-12T19:40:08.117Z,29.00
2022-08-12T19:42:44.559Z,28.90
2022-08-12T19:45:15.726Z,28.90
2022-08-12T19:47:46.664Z,28.90
2022-08-12T19:50:19.904Z,28.80
2022-08-12T19:52:53.355Z,28.80
2022-08-12T19:55:24.882Z,28.80
2022-08-12T19:58:01.622Z,28.80
2022-08-12T20:00:30.785Z,28.70
2022-08-12T20:03:00.638Z,28.70
2022-08-12T20:06:05.882Z,28.70
2022-08-12T20:08:32.819Z,28.60
2022-08-12T20:12:09.302Z,28.60
2022-08-12T20:14:00.808Z,28.50
2022-08-12T20:16:52.783Z,28.50
2022-08-12T20:19:52.698Z,28.50
2022-08-12T20:22:24.777Z,28.40
2022-08-12T20:25:01.540Z,28.40
2022-08-12T20:28:05.290Z,28.40
2022-08-12T20:30:37.335Z,28.30
2022-08-12T20:33:16.740Z,28.30
2022-08-12T20:36:06.258Z,28.20
2022-08-12T20:38:40.265Z,28.20
2022-08-12T20:41:17.418Z,28.20
2022-08-12T20:43:54.765Z,28.10
2022-08-12T20:46:27.951Z,28.10
2022-08-12T20:48:57.804Z,28.10
2022-08-12T20:51:51.037Z,28.00
2022-08-12T20:54:18.394Z,28.00
2022-08-12T20:56:47.115Z,27.90
2022-08-12T20:59:20.376Z,27.90
2022-08-12T21:01:53.767Z,27.90
2022-08-12T21:04:43.694Z,27.80
2022-08-12T21:07:14.329Z,27.80
2022-08-12T21:09:48.294Z,27.70
2022-08-12T21:12:27.614Z,27.70
2022-08-12T21:15:17.628Z,27.70
2022-08-12T21:18:00.898Z,27.60
2022-08-12T21:20:37.752Z,27.60
2022-08-12T21:23:07.503Z,27.60
2022-08-12T21:25:45.503Z,27.50
2022-08-12T21:28:14.872Z,27.50
2022-08-12T21:31:11.610Z,27.40
2022-08-12T21:33:58.565Z,27.40
2022-08-12T21:36:22.959Z,27.40
2022-08-12T21:39:17.999Z,27.30
2022-08-12T21:41:53.036Z,27.30
2022-08-12T21:45:44.662Z,27.20
2022-08-12T21:47:19.832Z,27.20
2022-08-12T21:50:02.357Z,27.20
2022-08-12T21:52:35.496Z,27.10
2022-08-12T21:55:07.954Z,27.10
2022-08-12T21:57:50.848Z,27.10
2022-08-12T22:00:21.147Z,27.00
2022-08-12T22:03:07.870Z,27.00
2022-08-12T22:05:53.556Z,26.90
2022-08-12T22:08:25.504Z,26.90
2022-08-12T22:10:56.487Z,26.90
2022-08-12T22:14:07.299Z,26.80
2022-08-12T22:16:17.051Z,26.80
2022-08-12T22:18:50.611Z,26.70
2022-08-12T22:21:22.232Z,26.70
2022-08-12T22:24:05.415Z,26.70
2022-08-12T22:26:37.821Z,26.70
2022-08-12T22:29:27.417Z,26.60
2022-08-12T22:31:56.463Z,26.60
2022-08-12T22:34:29.357Z,26.50
2022-08-12T22:36:58.150Z,26.50
2022-08-12T22:39:26.700Z,26.50
2022-08-12T22:42:12.573Z,26.50
2022-08-12T22:44:59.361Z,26.40
2022-08-12T22:47:53.890Z,26.40
2022-08-12T22:50:28.510Z,26.30
2022-08-12T22:53:15.480Z,26.30
2022-08-12T22:55:59.922Z,26.30
2022-08-12T22:58:36.569Z,26.20
2022-08-12T23:01:06.938Z,26.20
2022-08-12T23:03:49.508Z,26.20
2022-08-12T23:06:21.404Z,26.10
2022-08-12T23:08:49.858Z,26.10
2022-08-12T23:11:23.543Z,26.10
2022-08-12T23:13:56.839Z,26.00
2022-08-12T23:16:33.463Z,26.00
2022-08-12T23:19:09.989Z,26.00
2022-08-12T23:22:05.792Z,25.90
2022-08-12T23:24:53.843Z,25.90
2022-08-12T23:27:50.229Z,25.90
2022-08-12T23:30:31.850Z,25.80
2022-08-12T23:33:13.203Z,25.80
2022-08-12T23:36:02.485Z,25.80
2022-08-12T23:38:33.019Z,25.70
2022-08-12T23:41:03.549Z,25.70
2022-08-12T23:43:39.600Z,25.70
2022-08-12T23:46:12.146Z,25.60
2022-08-12T23:48:51.682Z,25.60
2022-08-12T23:51:24.497Z,25.60
2022-08-12T23:53:56.226Z,25.60
2022-08-12T23:56:25.575Z,25.60
2022-08-12T23:58:54.981Z,25.50
